Hovedside
METAR-TAF:

METAR-TAF

Lufthavner :

Åre Östersund lufthavn

Östersund-Frösön, Sverige

breddegrad: 63-11N, lengdegrad: 014-30E, høyde over havet: 376 m

Gjeldene værobservasjon

Denne rapporten ble laget for 36 minutter siden, klokken 04:20 UTC
Vind 10 kt fra Vest-nordvest
Temperatur 8°C
Luftfuktighet 76%
Trykk 1005 hPa
Sikt 10 km eller mer
Brutte skyer i en høyde av 3000 ft

METAR: ESNZ 210420Z 30010KT 9999 BKN030 08/04 Q1005

Tid: 06:56 (04:56 UTC)

Varsel

Denne rapporten ble laget for 1 time og 56 minutter siden, klokken 03:00 UTC
Varsel gyldig fra 21. klokken 04 UTC til 21. klokken 12 UTC
Vind 12 kt fra Nordvest
Sikt 10 km eller mer
Brutte skyer i en høyde av 3000 ft

TAF: ESNZ 210300Z 2104/2112 32012KT 9999 BKN030

Værobservasjoner og værvarsel for over 4000 flyplasser (METAR- og TAF-rapporter).

Tilgjengelige stasjoner er representert av de røde og gule prikkene på kartet.

Hold musepekeren over prikken for å se navnet på stasjonen.

Klikk så for å se værobservasjoner og -varsler.

For å forandre kartet kan du klikke på den grønne knappen med svart kryss for å zoome inn, på den grønne knappen med strek for å zoome ut, eller på de grønne pilene for å se tilstøtende kart.


METAR-TAF: